METAR Data
IDs: Format: Raw Decoded Include TAF

Data at: 0515 UTC 26 Sep 2018

KLYH 260511Z AUTO 00000KT 1SM R04/1600V2200FT BR VV002 18/18 A3012 RMK AO2 T01780178
KLYH 260508Z AUTO 00000KT 3/4SM R04/1600V2400FT BR VV002 17/17 A3012 RMK AO2 T01720172
KLYH 260501Z AUTO 00000KT 1SM R04/1800V4500FT BR VV002 18/18 A3013 RMK AO2 T01780178
KLYH 260456Z AUTO 00000KT 1 1/2SM R04/2400V4500FT BR FEW002 18/18 A3013 RMK AO2 T01830183
KLYH 260454Z AUTO 00000KT 1SM R04/2600V4500FT BR VV002 18/18 A3013 RMK AO2 SLP196 T01780178 402670172
KLYH 260425Z AUTO 00000KT 3/4SM R04/2600V4000FT BR VV001 18/18 A3014 RMK AO2 T01830183
KLYH 260419Z AUTO 00000KT 1 1/2SM R04/2000V3500FT BR FEW002 18/18 A3014 RMK AO2 T01830183
KLYH 260416Z AUTO 00000KT 1SM R04/2000V3500FT BR VV002 18/18 A3014 RMK AO2 T01830183
KLYH 260354Z AUTO 00000KT 3/4SM R04/2400VP6000FT BR CLR 18/18 A3014 RMK AO2 SLP200 T01830183
KLYH 260350Z AUTO 00000KT 3/4SM R04/3000VP6000FT BR VV002 18/18 A3014 RMK AO2
KLYH 260345Z AUTO 00000KT 1 1/4SM BR FEW002 18/18 A3014 RMK AO2 T01830183
KLYH 260335Z AUTO 00000KT 1 3/4SM BR CLR 18/18 A3014 RMK AO2 VIS 1V4 T01830183
KLYH 260316Z AUTO 00000KT 4SM BR CLR 19/19 A3015 RMK AO2 T01890189
KLYH 260314Z AUTO 00000KT 1 1/2SM BR CLR 19/19 A3015 RMK AO2 VIS 1/4V5 T01890189
KLYH 260304Z AUTO 00000KT 3/4SM R04/P6000FT BR CLR 19/19 A3015 RMK AO2 T01890189
KLYH 260301Z AUTO 00000KT 1 3/4SM BR CLR 19/19 A3015 RMK AO2 T01890189
KLYH 260254Z AUTO 00000KT 3SM BR CLR 19/19 A3015 RMK AO2 SLP204 T01890189 58003
KLYH 260252Z AUTO 00000KT 2SM R04/3500VP6000FT BR CLR 19/19 A3016 RMK AO2 VIS 1V5
KLYH 260246Z AUTO 00000KT 1SM R04/3500VP6000FT BR CLR 18/18 A3016 RMK AO2 T01830183
KLYH 260239Z AUTO 00000KT 1 3/4SM BR CLR 19/19 A3016 RMK AO2 VIS 3/4V5 T01890189
KLYH 260211Z 00000KT 3SM BR CLR 19/19 A3016 RMK AO2 T01940194
KLYH 260202Z 00000KT 1 3/4SM BR CLR 19/19 A3016 RMK AO2 VIS 3/4V4 T01940194
KLYH 260154Z 00000KT 5SM BR CLR 19/19 A3016 RMK AO2 SLP208 T01940194
KLYH 260054Z 00000KT 10SM CLR 21/21 A3017 RMK AO2 SLP209 T02060206
KLYH 252354Z 00000KT 10SM CLR 21/21 A3017 RMK AO2 SLP208 T02110211 10267 20211 55003
KLYH 252254Z 00000KT 10SM CLR 23/22 A3016 RMK AO2 SLP206 T02280217
KLYH 252154Z 00000KT 10SM CLR 24/22 A3017 RMK AO2 SLP209 T02390217
KLYH 252054Z 20004KT 10SM SCT021 SCT028 26/20 A3018 RMK AO2 SLP210 T02610200 56019
KLYH 251954Z 24005KT 10SM SCT021 BKN028 BKN033 26/21 A3019 RMK AO2 SLP214 T02560206
KLYH 251943Z 19007KT 10SM BKN023 BKN029 OVC034 26/21 A3019 RMK AO2 T02560206
KLYH 251922Z 26003KT 10SM SCT024 BKN030 25/21 A3020 RMK AO2 T02500206
KLYH 251854Z 20007KT 10SM BKN016 BKN026 26/21 A3021 RMK AO2 SLP221 T02560206
KLYH 251801Z 18006KT 10SM BKN016 OVC026 24/21 A3023 RMK AO2 T02440211
KLYH 251754Z 19006KT 10SM BKN008 OVC016 24/21 A3023 RMK AO2 SLP230 T02440206 10244 20178 58012
KLYH 251654Z VRB04KT 10SM OVC006 22/21 A3025 RMK AO2 SLP237 T02220211
KLYH 251652Z 17004KT 10SM BKN006 OVC010 23/21 A3025 RMK AO2
KLYH 251554Z 00000KT 4SM BR OVC004 21/21 A3027 RMK AO2 SLP243 T02110206
KLYH 251530Z 00000KT 5SM BR OVC003 21/21 A3027 RMK AO2 T02110206
KLYH 251516Z 00000KT 2SM R04/6000VP6000FT BR OVC003 21/21 A3028 RMK AO2 T02060206
KLYH 251454Z 00000KT 1SM R04/3500VP6000FT BR OVC002 20/20 A3028 RMK AO2 SLP247 T02000200 50005
KLYH 251354Z 00000KT 1SM R04/P6000FT BR OVC003 19/19 A3028 RMK AO2 SLP248 T01940194
KLYH 251352Z 00000KT 1SM R04/P6000FT BR OVC003 19/19 A3028 RMK AO2
KLYH 251254Z 00000KT 3SM BR OVC002 19/19 A3027 RMK AO2 SLP244 T01890189
KLYH 251252Z 00000KT 3SM BR OVC002 19/19 A3027 RMK AO2
KLYH 251203Z 00000KT 1SM R04/5000VP6000FT BR OVC002 18/18 A3026 RMK AO2 T01780178
KLYH 251154Z 00000KT 1 1/2SM R04/4500VP6000FT BR OVC002 18/18 A3025 RMK AO2 SLP239 T01780178 10178 20178 51004
KLYH 251054Z 03004KT 1/2SM R04/5500VP6000FT FG OVC002 18/18 A3024 RMK AO2 SLP236 T01780178
KLYH 251052Z 02004KT 1/2SM R04/6000VP6000FT FG OVC002 18/18 A3024 RMK AO2
KLYH 251006Z AUTO 04004KT 2 1/2SM R04/4500VP6000FT BR OVC002 18/18 A3024 RMK AO2 T01780178
KLYH 250954Z AUTO 02005KT 1 3/4SM BR OVC002 18/18 A3024 RMK AO2 SLP235 T01780178
KLYH 250938Z AUTO 01003KT 2SM BR OVC002 18/18 A3024 RMK AO2 T01780178
KLYH 250926Z AUTO 02003KT 4SM BR OVC002 18/18 A3024 RMK AO2 T01780178
KLYH 250919Z AUTO 03003KT 2 1/2SM BR OVC002 18/18 A3024 RMK AO2 T01780178
KLYH 250904Z AUTO 02004KT 1 3/4SM R04/5000VP6000FT BR OVC003 18/18 A3024 RMK AO2 T01780178
KLYH 250854Z AUTO 02004KT 1 1/4SM R04/4500VP6000FT BR OVC003 18/18 A3024 RMK AO2 SLP235 T01780178 56012
KLYH 250844Z AUTO 03005KT 1 1/4SM R04/5500VP6000FT BR OVC002 18/18 A3024 RMK AO2 T01780178
KLYH 250835Z AUTO 04005KT 1 1/2SM R04/6000VP6000FT BR OVC002 18/18 A3025 RMK AO2 T01780178
KLYH 250814Z AUTO 03004KT 2SM BR OVC002 18/18 A3025 RMK AO2 T01780178
KLYH 250802Z AUTO 01003KT 1 3/4SM BR OVC002 18/18 A3025 RMK AO2 T01780178
KLYH 250754Z AUTO 00000KT 3SM BR OVC002 18/18 A3025 RMK AO2 SLP239 T01780178
KLYH 250735Z AUTO 04006KT 2 1/2SM BR OVC002 18/18 A3025 RMK AO2 T01780178
KLYH 250715Z AUTO 02005KT 3SM BR OVC002 18/18 A3026 RMK AO2 T01780178
KLYH 250706Z AUTO 03005KT 1 3/4SM BR OVC002 18/18 A3026 RMK AO2 T01780178
KLYH 250654Z AUTO 03005KT 1SM R04/4500V5500FT BR VV002 18/18 A3026 RMK AO2 SLP243 T01780178
KLYH 250608Z AUTO 02005KT 1 1/4SM R04/5000VP6000FT BR OVC002 18/18 A3027 RMK AO2 T01780178
KLYH 250554Z AUTO 02006KT 2SM BR OVC003 18/18 A3028 RMK AO2 SLP248 T01780178 10194 20178 58006
KLYH 250533Z AUTO 03005KT 3SM BR OVC002 18/18 A3028 RMK AO2 T01830183
KLYH 250526Z AUTO 03004KT 2 1/2SM BR OVC002 18/18 A3028 RMK AO2 T01830183
KLYH 250454Z AUTO 03005KT 4SM BR OVC003 18/18 A3029 RMK AO2 SLP251 T01830183 401940156
KLYH 250354Z AUTO 36004KT 5SM BR OVC003 18/18 A3030 RMK AO2 SLP256 T01830183
KLYH 250324Z AUTO 05003KT 3SM BR OVC003 18/18 A3030 RMK AO2 T01830183
KLYH 250254Z AUTO 05006KT 2SM BR OVC003 18/18 A3030 RMK AO2 SLP254 T01830183 53002
KLYH 250242Z AUTO 04007KT 2SM BR OVC003 18/18 A3030 RMK AO2 T01830183
KLYH 250154Z 03006KT 3SM BR OVC002 18/18 A3029 RMK AO2 SLP252 T01830183
KLYH 250130Z 02006KT 2SM BR OVC002 18/18 A3029 RMK AO2 T01780178
KLYH 250118Z 02005KT 3SM BR OVC002 18/18 A3029 RMK AO2 T01830183
KLYH 250054Z 02005KT 2 1/2SM BR OVC002 18/18 A3029 RMK AO2 SLP253 T01780178
KLYH 250051Z 03006KT 2 1/2SM BR OVC002 18/18 A3029 RMK AO2
KLYH 242354Z 04006KT 7SM OVC004 18/18 A3029 RMK AO2 SLP251 T01830183 10189 20178 53004
KLYH 242254Z 03007KT 7SM OVC004 18/18 A3028 RMK AO2 SLP250 T01830183
KLYH 242217Z 03006KT 4SM BR OVC004 18/18 A3027 RMK AO2 T01830183
KLYH 242154Z 02007KT 4SM BR OVC006 18/18 A3028 RMK AO2 SLP247 T01830183
KLYH 242054Z 04006KT 10SM OVC006 19/18 A3027 RMK AO2 SLP246 T01890178 56012
KLYH 241954Z 04007KT 9SM OVC006 18/18 A3028 RMK AO2 SLP249 T01830178
KLYH 241854Z 05008KT 10SM OVC007 18/17 A3029 RMK AO2 SLP253 T01830172
KLYH 241754Z 03009KT 10SM OVC008 18/17 A3031 RMK AO2 SLP258 T01830172 10189 20161 57006